Herentals, Belgium
Current Conditions -  °F | °C
As of 10:25 PM on Friday 31 Oct 2014 (Local Time) from EBDT Reporting Station
Clear Clear  
Wind Chill: 55°   Ceiling: Unl
Heat Index: 55°   Visibility: 6mi
Dew Point: 52°   Wind: 8mph
Humidity: 88%   Direction: 160°SSE
Pressure: 30.15"   Gusts: NA
Location:  51.18°N, 4.83°E
Report Text: EBDT 312125Z AUTO 16007KT 9999 NCD 13/11 Q1021 BLU
Loading
Personal Weather Stations






























Interactive Weather Map
Tropical Storm Tracking
New forecast layout! Learn more

10-Day Weather Forecast

Advertisements
Track Severe Weather on mobile